Cochise — WDD8952 — position and weather

sailwx.info

Track history (hours):
 
Tides and Currents Weather Stations Pressure Air Temp Water Temp Dewpoint Dewpoint Depression Visibility Wind Speed Wind Dir Waves Ship Positions

Cochise

Owner: Sause Bros, Coos Bay, OR. More information available from US FCC via Universal Licensing System and Coast Guard Vessel Documentation Center.

Last reported at 2016-May-24 12:15 UTC. Time now 2016-May-25 18:57 UTC.
Position N 38°27' W 123°38'.

Length 32 m; draft 4.8 m.

Type: Towing. MMSI: 367304990.

Date/timePositionNaut miles runAvg speedWind from/ knotsBaromVisibWave heightAir tempDewpointWater temp
2016-May-24 12:15N 38°27' W 123°38'5 7.3
2016-May-24 11:33N 38°23' W 123°33'8 8.3
2016-May-24 10:33N 38°17' W 123°27'8 8.3
2016-May-24 09:33N 38°10' W 123°21'8 8.3
2016-May-24 08:33N 38°04' W 123°14'9 8.8
2016-May-24 07:31N 37°57' W 123°06'9 9.1
2016-May-24 06:33N 37°53' W 122°56'17 8.5
2016-May-24 04:33N 37°47' W 122°36'9 9.1
2016-May-24 03:33N 37°50' W 122°26'5 5.3
2016-May-24 02:33N 37°55' W 122°25'0 0.2
2016-May-24 01:23N 37°55' W 122°25'0 0.0
2016-May-24 00:29N 37°55' W 122°25'0 0.0
2016-May-23 23:29N 37°55' W 122°25'0 0.0
2016-May-23 22:32N 37°55' W 122°25'0 0.0
2016-May-23 21:32N 37°55' W 122°25'0 0.0
2016-May-23 20:26N 37°55' W 122°25'0 0.0
2016-May-23 19:29N 37°55' W 122°25'0 0.0
2016-May-23 18:29N 37°55' W 122°25'0 0.0
2016-May-23 17:29N 37°55' W 122°25'0 0.0
2016-May-23 16:32N 37°55' W 122°25'0 0.0
2016-May-23 15:32N 37°55' W 122°25'0 0.0
2016-May-23 14:26N 37°55' W 122°25'0 0.1
2016-May-23 13:33N 37°55' W 122°25'1 1.1
2016-May-23 12:33N 37°54' W 122°25'8 7.6
2016-May-23 11:33N 37°47' W 122°23'1 0.7
2016-May-23 10:32N 37°46' W 122°23'0 0.0
2016-May-23 09:32N 37°46' W 122°23'0 0.0
2016-May-23 08:32N 37°46' W 122°23'0 0.0
2016-May-23 07:32N 37°46' W 122°23'0 0.0
2016-May-23 06:32N 37°46' W 122°23'0 0.0
2016-May-23 05:32N 37°46' W 122°23'0 0.0
2016-May-23 04:32N 37°46' W 122°23'0 0.0
2016-May-23 03:32N 37°46' W 122°23'0 0.0
2016-May-23 02:32N 37°46' W 122°23'0 0.0
2016-May-23 01:32N 37°46' W 122°23'0 0.0
2016-May-23 00:32N 37°46' W 122°23'0 0.0
2016-May-22 23:32N 37°46' W 122°23'0 0.0
2016-May-22 22:31N 37°46' W 122°23'0 0.0
2016-May-22 21:32N 37°46' W 122°23'0 0.0
2016-May-22 20:32N 37°46' W 122°23'0 0.0
2016-May-22 19:31N 37°46' W 122°23'0 0.0
2016-May-22 18:31N 37°46' W 122°23'0 0.0
2016-May-22 17:31N 37°46' W 122°23'0 0.0
2016-May-22 16:31N 37°46' W 122°23'0 0.0
2016-May-22 15:31N 37°46' W 122°23'0 0.0
2016-May-22 14:31N 37°46' W 122°23'0 0.0
2016-May-22 13:31N 37°46' W 122°23'0 0.0
2016-May-22 12:31N 37°46' W 122°23'0 0.0
2016-May-22 11:31N 37°46' W 122°23'0 0.0
2016-May-22 10:31N 37°46' W 122°23'0 0.0
2016-May-22 09:31N 37°46' W 122°23'0 0.0
2016-May-22 08:31N 37°46' W 122°23'0 0.0
2016-May-22 07:31N 37°46' W 122°23'0 0.0
2016-May-22 06:31N 37°46' W 122°23'0 0.0
2016-May-22 05:31N 37°46' W 122°23'0 0.0
2016-May-22 04:31N 37°46' W 122°23'0 0.0
2016-May-22 03:31N 37°46' W 122°23'0 0.0
2016-May-22 02:31N 37°46' W 122°23'0 0.0
2016-May-22 01:31N 37°46' W 122°23'0 0.0
2016-May-22 00:31N 37°46' W 122°23'0 0.0
2016-May-21 23:31N 37°46' W 122°23'0 0.0
2016-May-21 22:31N 37°46' W 122°23'0 0.0
2016-May-21 21:28N 37°46' W 122°23'0 0.1
2016-May-21 20:28N 37°46' W 122°23'0 0.0
2016-May-21 19:31N 37°46' W 122°23'0 0.0
2016-May-21 18:31N 37°46' W 122°23'0 0.0
2016-May-21 17:31N 37°46' W 122°23'0 0.0
2016-May-21 16:31N 37°46' W 122°23'0 0.0
2016-May-21 15:31N 37°46' W 122°23'0 0.0
2016-May-21 14:31N 37°46' W 122°23'0 0.0
2016-May-21 13:31N 37°46' W 122°23'0 0.0
2016-May-21 12:31N 37°46' W 122°23'0 0.0
2016-May-21 11:31N 37°46' W 122°23'0 0.0
2016-May-21 10:31N 37°46' W 122°23'0 0.0
2016-May-21 09:31N 37°46' W 122°23'0 0.0
2016-May-21 08:31N 37°46' W 122°23'0 0.0
2016-May-21 07:28N 37°46' W 122°23'0 0.0
2016-May-21 06:31N 37°46' W 122°23'0 0.0
2016-May-21 05:31N 37°46' W 122°23'0 0.0
2016-May-21 04:31N 37°46' W 122°23'0 0.0
2016-May-21 03:31N 37°46' W 122°23'0 0.0
2016-May-21 02:31N 37°46' W 122°23'0 0.1
2016-May-21 01:31N 37°46' W 122°23'0 0.0
2016-May-21 00:31N 37°46' W 122°23'0 0.0
2016-May-20 23:31N 37°46' W 122°23'0 0.0
2016-May-20 22:31N 37°46' W 122°23'0 0.0
2016-May-20 21:31N 37°46' W 122°23'0 0.0
2016-May-20 20:31N 37°46' W 122°23'0 0.0
2016-May-20 19:31N 37°46' W 122°23'0 0.0
2016-May-20 18:31N 37°46' W 122°23'0 0.0
2016-May-20 17:31N 37°46' W 122°23'0 0.0
2016-May-20 16:33N 37°46' W 122°23'0 0.0
2016-May-20 15:33N 37°46' W 122°23'0 0.0
2016-May-20 14:33N 37°46' W 122°23'0 0.0
2016-May-20 13:33N 37°46' W 122°23'0 0.0
2016-May-20 12:33N 37°46' W 122°23'0 0.0
2016-May-20 11:33N 37°46' W 122°23'0 0.0
2016-May-20 10:33N 37°46' W 122°23'0 0.0
2016-May-20 09:33N 37°46' W 122°23'0 0.0
2016-May-20 08:33N 37°46' W 122°23'0 0.0
2016-May-20 07:33N 37°46' W 122°23'0 0.0
2016-May-20 06:33N 37°46' W 122°23'0 0.0
2016-May-20 05:33N 37°46' W 122°23'0 0.0
2016-May-20 04:33N 37°46' W 122°23'0 0.0
2016-May-20 03:33N 37°46' W 122°23'0 0.0
2016-May-20 02:33N 37°46' W 122°23'0 0.0
2016-May-20 01:33N 37°46' W 122°23'0 0.0
2016-May-20 00:33N 37°46' W 122°23'0 0.0
2016-May-19 23:33N 37°46' W 122°23'0 0.0
2016-May-19 22:33N 37°46' W 122°23'0 0.0
2016-May-19 21:33N 37°46' W 122°23'0 0.0
2016-May-19 20:33N 37°46' W 122°23'0 0.0
2016-May-19 19:33N 37°46' W 122°23'7 6.5
2016-May-19 18:33N 37°53' W 122°25'3 2.5
2016-May-19 17:23N 37°55' W 122°22'0 0.0
2016-May-19 16:29N 37°55' W 122°22'0 0.0
2016-May-19 15:32N 37°55' W 122°22'0 0.0
2016-May-19 14:29N 37°55' W 122°22'3 2.9
2016-May-19 13:33N 37°54' W 122°25'8 7.4
2016-May-19 12:31N 37°46' W 122°23'0 0.0
2016-May-19 11:31N 37°46' W 122°23'0 0.0
2016-May-19 10:31N 37°46' W 122°23'0 0.0
2016-May-19 09:31N 37°46' W 122°23'0 0.0
2016-May-19 08:31N 37°46' W 122°23'0 0.0
2016-May-19 07:31N 37°46' W 122°23'0 0.0
2016-May-19 06:31N 37°46' W 122°23'0 0.0
2016-May-19 05:31N 37°46' W 122°23'0 0.0
2016-May-19 04:31N 37°46' W 122°23'0 0.0
2016-May-19 03:31N 37°46' W 122°23'0 0.0
2016-May-19 02:31N 37°46' W 122°23'0 0.0
2016-May-19 01:31N 37°46' W 122°23'0 0.0
2016-May-19 00:31N 37°46' W 122°23'0 0.0
2016-May-18 23:31N 37°46' W 122°23'0 0.0
2016-May-18 22:31N 37°46' W 122°23'0 0.0
2016-May-18 21:31N 37°46' W 122°23'0 0.0
2016-May-18 20:31N 37°46' W 122°23'0 0.0
2016-May-18 19:31N 37°46' W 122°23'0 0.0
2016-May-18 18:31N 37°46' W 122°23'0 0.0
2016-May-18 17:31N 37°46' W 122°23'0 0.0
2016-May-18 16:31N 37°46' W 122°23'0 0.0
2016-May-18 15:31N 37°46' W 122°23'1 0.8
2016-May-18 14:33N 37°47' W 122°23'7 7.5
2016-May-18 13:34N 37°54' W 122°26'0 0.1
2016-May-18 12:27N 37°54' W 122°26'0 0.0
2016-May-18 11:33N 37°54' W 122°26'0 0.0
2016-May-18 10:33N 37°54' W 122°26'0 0.3
2016-May-18 09:33N 37°55' W 122°26'3 2.5
2016-May-18 08:26N 37°55' W 122°22'0 0.0
2016-May-18 06:28N 37°55' W 122°22'0 0.0
2016-May-18 05:31N 37°55' W 122°22'0 0.0
2016-May-18 04:33N 37°55' W 122°22'7 6.6
2016-May-18 03:33N 37°49' W 122°23'2 2.2
2016-May-18 02:33N 37°46' W 122°23'6 6.0
2016-May-18 01:33N 37°49' W 122°30'1110.6
2016-May-18 00:33N 37°45' W 122°42'1010.1
2016-May-17 23:33N 37°49' W 122°54'1010.3
2016-May-17 22:33N 37°55' W 123°05'9 8.6
2016-May-17 21:33N 37°60' W 123°13'9 8.8
2016-May-17 20:33N 38°07' W 123°21'10 9.8
2016-May-17 19:33N 38°15' W 123°27'1010.3
2016-May-17 18:33N 38°24' W 123°32'1010.1
2016-May-17 17:33N 38°33' W 123°38'10 9.9
2016-May-17 16:33N 38°42' W 123°44'  
2016-May-15 10:16N 38°27' W 123°37'6 8.1
2016-May-15 09:33N 38°23' W 123°33'8 7.9
2016-May-15 08:33N 38°16' W 123°27'9 8.7
2016-May-15 07:33N 38°09' W 123°20'9 9.1
2016-May-15 06:33N 38°02' W 123°13'9 9.0
2016-May-15 05:33N 37°57' W 123°04'9 9.3
2016-May-15 04:33N 37°52' W 122°54'9 9.2
2016-May-15 03:33N 37°48' W 122°43'8 8.1
2016-May-15 02:33N 37°47' W 122°33'6 6.4
2016-May-15 01:33N 37°50' W 122°26'4 4.4
2016-May-15 00:33N 37°54' W 122°26'3 1.0
2016-May-14 21:23N 37°55' W 122°22'0 0.0
2016-May-14 20:26N 37°55' W 122°22'0 0.0
2016-May-14 19:26N 37°55' W 122°22'0 0.0
2016-May-14 18:23N 37°55' W 122°22'0 0.0
2016-May-14 17:32N 37°55' W 122°22'0 0.0
2016-May-14 15:32N 37°55' W 122°22'0 0.0
2016-May-14 14:20N 37°55' W 122°22'0 0.0
2016-May-14 13:20N 37°55' W 122°22'0 0.1
2016-May-14 12:32N 37°55' W 122°22'  
Track history (hours):
 
Tides and Currents Weather Stations Pressure Air Temp Water Temp Dewpoint Dewpoint Depression Visibility Wind Speed Wind Dir Waves Ship Positions

Cochise

Owner: Sause Bros, Coos Bay, OR. More information available from US FCC via Universal Licensing System and Coast Guard Vessel Documentation Center.

Last reported at 2016-May-24 12:15 UTC. Time now 2016-May-25 18:57 UTC.
Position N 38°27' W 123°38'.

Length 32 m; draft 4.8 m.

Type: Towing. MMSI: 367304990.

Date/timePositionNaut miles runAvg speedWind from/ knotsBaromVisibWave heightAir tempDewpointWater temp
2016-May-24 12:15N 38°27' W 123°38'5 7.3
2016-May-24 11:33N 38°23' W 123°33'8 8.3
2016-May-24 10:33N 38°17' W 123°27'8 8.3
2016-May-24 09:33N 38°10' W 123°21'8 8.3
2016-May-24 08:33N 38°04' W 123°14'9 8.8
2016-May-24 07:31N 37°57' W 123°06'9 9.1
2016-May-24 06:33N 37°53' W 122°56'17 8.5
2016-May-24 04:33N 37°47' W 122°36'9 9.1
2016-May-24 03:33N 37°50' W 122°26'5 5.3
2016-May-24 02:33N 37°55' W 122°25'0 0.2
2016-May-24 01:23N 37°55' W 122°25'0 0.0
2016-May-24 00:29N 37°55' W 122°25'0 0.0
2016-May-23 23:29N 37°55' W 122°25'0 0.0
2016-May-23 22:32N 37°55' W 122°25'0 0.0
2016-May-23 21:32N 37°55' W 122°25'0 0.0
2016-May-23 20:26N 37°55' W 122°25'0 0.0
2016-May-23 19:29N 37°55' W 122°25'0 0.0
2016-May-23 18:29N 37°55' W 122°25'0 0.0
2016-May-23 17:29N 37°55' W 122°25'0 0.0
2016-May-23 16:32N 37°55' W 122°25'0 0.0
2016-May-23 15:32N 37°55' W 122°25'0 0.0
2016-May-23 14:26N 37°55' W 122°25'0 0.1
2016-May-23 13:33N 37°55' W 122°25'1 1.1
2016-May-23 12:33N 37°54' W 122°25'8 7.6
2016-May-23 11:33N 37°47' W 122°23'1 0.7
2016-May-23 10:32N 37°46' W 122°23'0 0.0
2016-May-23 09:32N 37°46' W 122°23'0 0.0
2016-May-23 08:32N 37°46' W 122°23'0 0.0
2016-May-23 07:32N 37°46' W 122°23'0 0.0
2016-May-23 06:32N 37°46' W 122°23'0 0.0
2016-May-23 05:32N 37°46' W 122°23'0 0.0
2016-May-23 04:32N 37°46' W 122°23'0 0.0
2016-May-23 03:32N 37°46' W 122°23'0 0.0
2016-May-23 02:32N 37°46' W 122°23'0 0.0
2016-May-23 01:32N 37°46' W 122°23'0 0.0
2016-May-23 00:32N 37°46' W 122°23'0 0.0
2016-May-22 23:32N 37°46' W 122°23'0 0.0
2016-May-22 22:31N 37°46' W 122°23'0 0.0
2016-May-22 21:32N 37°46' W 122°23'0 0.0
2016-May-22 20:32N 37°46' W 122°23'0 0.0
2016-May-22 19:31N 37°46' W 122°23'0 0.0
2016-May-22 18:31N 37°46' W 122°23'0 0.0
2016-May-22 17:31N 37°46' W 122°23'0 0.0
2016-May-22 16:31N 37°46' W 122°23'0 0.0
2016-May-22 15:31N 37°46' W 122°23'0 0.0
2016-May-22 14:31N 37°46' W 122°23'0 0.0
2016-May-22 13:31N 37°46' W 122°23'0 0.0
2016-May-22 12:31N 37°46' W 122°23'0 0.0
2016-May-22 11:31N 37°46' W 122°23'0 0.0
2016-May-22 10:31N 37°46' W 122°23'0 0.0
2016-May-22 09:31N 37°46' W 122°23'0 0.0
2016-May-22 08:31N 37°46' W 122°23'0 0.0
2016-May-22 07:31N 37°46' W 122°23'0 0.0
2016-May-22 06:31N 37°46' W 122°23'0 0.0
2016-May-22 05:31N 37°46' W 122°23'0 0.0
2016-May-22 04:31N 37°46' W 122°23'0 0.0
2016-May-22 03:31N 37°46' W 122°23'0 0.0
2016-May-22 02:31N 37°46' W 122°23'0 0.0
2016-May-22 01:31N 37°46' W 122°23'0 0.0
2016-May-22 00:31N 37°46' W 122°23'0 0.0
2016-May-21 23:31N 37°46' W 122°23'0 0.0
2016-May-21 22:31N 37°46' W 122°23'0 0.0
2016-May-21 21:28N 37°46' W 122°23'0 0.1
2016-May-21 20:28N 37°46' W 122°23'0 0.0
2016-May-21 19:31N 37°46' W 122°23'0 0.0
2016-May-21 18:31N 37°46' W 122°23'0 0.0
2016-May-21 17:31N 37°46' W 122°23'0 0.0
2016-May-21 16:31N 37°46' W 122°23'0 0.0
2016-May-21 15:31N 37°46' W 122°23'0 0.0
2016-May-21 14:31N 37°46' W 122°23'0 0.0
2016-May-21 13:31N 37°46' W 122°23'0 0.0
2016-May-21 12:31N 37°46' W 122°23'0 0.0
2016-May-21 11:31N 37°46' W 122°23'0 0.0
2016-May-21 10:31N 37°46' W 122°23'0 0.0
2016-May-21 09:31N 37°46' W 122°23'0 0.0
2016-May-21 08:31N 37°46' W 122°23'0 0.0
2016-May-21 07:28N 37°46' W 122°23'0 0.0
2016-May-21 06:31N 37°46' W 122°23'0 0.0
2016-May-21 05:31N 37°46' W 122°23'0 0.0
2016-May-21 04:31N 37°46' W 122°23'0 0.0
2016-May-21 03:31N 37°46' W 122°23'0 0.0
2016-May-21 02:31N 37°46' W 122°23'0 0.1
2016-May-21 01:31N 37°46' W 122°23'0 0.0
2016-May-21 00:31N 37°46' W 122°23'0 0.0
2016-May-20 23:31N 37°46' W 122°23'0 0.0
2016-May-20 22:31N 37°46' W 122°23'0 0.0
2016-May-20 21:31N 37°46' W 122°23'0 0.0
2016-May-20 20:31N 37°46' W 122°23'0 0.0
2016-May-20 19:31N 37°46' W 122°23'0 0.0
2016-May-20 18:31N 37°46' W 122°23'0 0.0
2016-May-20 17:31N 37°46' W 122°23'0 0.0
2016-May-20 16:33N 37°46' W 122°23'0 0.0
2016-May-20 15:33N 37°46' W 122°23'0 0.0
2016-May-20 14:33N 37°46' W 122°23'0 0.0
2016-May-20 13:33N 37°46' W 122°23'0 0.0
2016-May-20 12:33N 37°46' W 122°23'0 0.0
2016-May-20 11:33N 37°46' W 122°23'0 0.0
2016-May-20 10:33N 37°46' W 122°23'0 0.0
2016-May-20 09:33N 37°46' W 122°23'0 0.0
2016-May-20 08:33N 37°46' W 122°23'0 0.0
2016-May-20 07:33N 37°46' W 122°23'0 0.0
2016-May-20 06:33N 37°46' W 122°23'0 0.0
2016-May-20 05:33N 37°46' W 122°23'0 0.0
2016-May-20 04:33N 37°46' W 122°23'0 0.0
2016-May-20 03:33N 37°46' W 122°23'0 0.0
2016-May-20 02:33N 37°46' W 122°23'0 0.0
2016-May-20 01:33N 37°46' W 122°23'0 0.0
2016-May-20 00:33N 37°46' W 122°23'0 0.0
2016-May-19 23:33N 37°46' W 122°23'0 0.0
2016-May-19 22:33N 37°46' W 122°23'0 0.0
2016-May-19 21:33N 37°46' W 122°23'0 0.0
2016-May-19 20:33N 37°46' W 122°23'0 0.0
2016-May-19 19:33N 37°46' W 122°23'7 6.5
2016-May-19 18:33N 37°53' W 122°25'3 2.5
2016-May-19 17:23N 37°55' W 122°22'0 0.0
2016-May-19 16:29N 37°55' W 122°22'0 0.0
2016-May-19 15:32N 37°55' W 122°22'0 0.0
2016-May-19 14:29N 37°55' W 122°22'3 2.9
2016-May-19 13:33N 37°54' W 122°25'8 7.4
2016-May-19 12:31N 37°46' W 122°23'0 0.0
2016-May-19 11:31N 37°46' W 122°23'0 0.0
2016-May-19 10:31N 37°46' W 122°23'0 0.0
2016-May-19 09:31N 37°46' W 122°23'0 0.0
2016-May-19 08:31N 37°46' W 122°23'0 0.0
2016-May-19 07:31N 37°46' W 122°23'0 0.0
2016-May-19 06:31N 37°46' W 122°23'0 0.0
2016-May-19 05:31N 37°46' W 122°23'0 0.0
2016-May-19 04:31N 37°46' W 122°23'0 0.0
2016-May-19 03:31N 37°46' W 122°23'0 0.0
2016-May-19 02:31N 37°46' W 122°23'0 0.0
2016-May-19 01:31N 37°46' W 122°23'0 0.0
2016-May-19 00:31N 37°46' W 122°23'0 0.0
2016-May-18 23:31N 37°46' W 122°23'0 0.0
2016-May-18 22:31N 37°46' W 122°23'0 0.0
2016-May-18 21:31N 37°46' W 122°23'0 0.0
2016-May-18 20:31N 37°46' W 122°23'0 0.0
2016-May-18 19:31N 37°46' W 122°23'0 0.0
2016-May-18 18:31N 37°46' W 122°23'0 0.0
2016-May-18 17:31N 37°46' W 122°23'0 0.0
2016-May-18 16:31N 37°46' W 122°23'0 0.0
2016-May-18 15:31N 37°46' W 122°23'1 0.8
2016-May-18 14:33N 37°47' W 122°23'7 7.5
2016-May-18 13:34N 37°54' W 122°26'0 0.1
2016-May-18 12:27N 37°54' W 122°26'0 0.0
2016-May-18 11:33N 37°54' W 122°26'0 0.0
2016-May-18 10:33N 37°54' W 122°26'0 0.3
2016-May-18 09:33N 37°55' W 122°26'3 2.5
2016-May-18 08:26N 37°55' W 122°22'0 0.0
2016-May-18 06:28N 37°55' W 122°22'0 0.0
2016-May-18 05:31N 37°55' W 122°22'0 0.0
2016-May-18 04:33N 37°55' W 122°22'7 6.6
2016-May-18 03:33N 37°49' W 122°23'2 2.2
2016-May-18 02:33N 37°46' W 122°23'6 6.0
2016-May-18 01:33N 37°49' W 122°30'1110.6
2016-May-18 00:33N 37°45' W 122°42'1010.1
2016-May-17 23:33N 37°49' W 122°54'1010.3
2016-May-17 22:33N 37°55' W 123°05'9 8.6
2016-May-17 21:33N 37°60' W 123°13'9 8.8
2016-May-17 20:33N 38°07' W 123°21'10 9.8
2016-May-17 19:33N 38°15' W 123°27'1010.3
2016-May-17 18:33N 38°24' W 123°32'1010.1
2016-May-17 17:33N 38°33' W 123°38'10 9.9
2016-May-17 16:33N 38°42' W 123°44'  
2016-May-15 10:16N 38°27' W 123°37'6 8.1
2016-May-15 09:33N 38°23' W 123°33'8 7.9
2016-May-15 08:33N 38°16' W 123°27'9 8.7
2016-May-15 07:33N 38°09' W 123°20'9 9.1
2016-May-15 06:33N 38°02' W 123°13'9 9.0
2016-May-15 05:33N 37°57' W 123°04'9 9.3
2016-May-15 04:33N 37°52' W 122°54'9 9.2
2016-May-15 03:33N 37°48' W 122°43'8 8.1
2016-May-15 02:33N 37°47' W 122°33'6 6.4
2016-May-15 01:33N 37°50' W 122°26'4 4.4
2016-May-15 00:33N 37°54' W 122°26'3 1.0
2016-May-14 21:23N 37°55' W 122°22'0 0.0
2016-May-14 20:26N 37°55' W 122°22'0 0.0
2016-May-14 19:26N 37°55' W 122°22'0 0.0
2016-May-14 18:23N 37°55' W 122°22'0 0.0
2016-May-14 17:32N 37°55' W 122°22'0 0.0
2016-May-14 15:32N 37°55' W 122°22'0 0.0
2016-May-14 14:20N 37°55' W 122°22'0 0.0
2016-May-14 13:20N 37°55' W 122°22'0 0.1
2016-May-14 12:32N 37°55' W 122°22'  

Dump ship's entire track history